createdAt,value
2023-03-10T00:01:58.895Z,35.30
2023-03-10T00:04:31.248Z,37.60
2023-03-10T00:07:03.393Z,38.40
2023-03-10T00:09:35.761Z,37.20
2023-03-10T00:12:09.598Z,28.20
2023-03-10T00:14:42.023Z,36.10
2023-03-10T00:17:14.111Z,38.20
2023-03-10T00:19:46.467Z,36.10
2023-03-10T00:22:18.597Z,40.00
2023-03-10T00:24:51.028Z,36.20
2023-03-10T00:27:23.084Z,36.20
2023-03-10T00:29:55.998Z,38.90
2023-03-10T00:32:28.377Z,28.80
2023-03-10T00:35:00.653Z,30.20
2023-03-10T00:37:32.672Z,34.90
2023-03-10T00:40:06.832Z,35.00
2023-03-10T00:42:39.644Z,35.60
2023-03-10T00:45:13.268Z,39.10
2023-03-10T00:47:47.190Z,42.30
2023-03-10T00:50:19.830Z,36.50
2023-03-10T00:52:52.436Z,40.60
2023-03-10T00:55:24.718Z,37.80
2023-03-10T00:57:57.103Z,43.00
2023-03-10T01:00:29.726Z,43.70
2023-03-10T01:03:03.072Z,37.80
2023-03-10T01:05:35.410Z,44.60
2023-03-10T01:08:07.886Z,39.20
2023-03-10T01:10:40.903Z,42.00
2023-03-10T01:13:13.587Z,42.50
2023-03-10T01:15:48.072Z,38.10
2023-03-10T01:18:21.685Z,43.10
2023-03-10T01:20:54.613Z,38.80
2023-03-10T01:23:28.300Z,39.70
2023-03-10T01:26:00.858Z,44.80
2023-03-10T01:28:34.266Z,43.50
2023-03-10T01:31:09.336Z,41.30
2023-03-10T01:33:43.145Z,43.40
2023-03-10T01:38:51.220Z,39.90
2023-03-10T01:41:24.332Z,40.20
2023-03-10T01:43:57.795Z,40.20
2023-03-10T01:46:49.777Z,41.10
2023-03-10T01:49:39.868Z,43.10
2023-03-10T01:52:16.522Z,42.30
2023-03-10T01:54:52.589Z,42.30
2023-03-10T01:57:28.919Z,38.20
2023-03-10T02:00:01.900Z,44.20
2023-03-10T02:02:39.189Z,43.70
2023-03-10T02:05:12.472Z,45.40
2023-03-10T02:07:45.851Z,44.30
2023-03-10T02:10:19.331Z,42.40
2023-03-10T02:12:54.420Z,43.60
2023-03-10T02:15:27.282Z,42.30
2023-03-10T02:18:00.388Z,26.70
2023-03-10T02:20:44.052Z,38.70
2023-03-10T02:23:24.815Z,38.60
2023-03-10T02:26:02.704Z,42.30
2023-03-10T02:28:35.251Z,44.10
2023-03-10T02:31:08.524Z,44.50
2023-03-10T02:36:23.086Z,43.00
2023-03-10T02:38:55.810Z,40.10
2023-03-10T02:41:31.974Z,42.80
2023-03-10T02:44:07.746Z,40.80
2023-03-10T02:46:40.775Z,44.00
2023-03-10T02:49:13.810Z,41.30
2023-03-10T02:51:49.120Z,42.30
2023-03-10T02:54:23.323Z,45.20
2023-03-10T02:56:55.562Z,44.80
2023-03-10T02:59:27.922Z,43.90
2023-03-10T03:02:00.027Z,43.20
2023-03-10T03:04:32.322Z,47.20
2023-03-10T03:07:04.625Z,46.40
2023-03-10T03:09:38.042Z,46.70
2023-03-10T03:12:11.438Z,49.00
2023-03-10T03:17:14.481Z,40.40
2023-03-10T03:19:46.784Z,41.30
2023-03-10T03:22:19.269Z,45.10
2023-03-10T03:24:51.437Z,43.40
2023-03-10T03:27:23.839Z,42.40
2023-03-10T03:29:56.104Z,42.70
2023-03-10T03:32:28.432Z,46.30
2023-03-10T03:35:01.457Z,46.90
2023-03-10T03:37:33.723Z,38.40
2023-03-10T03:40:12.976Z,40.90
2023-03-10T03:42:49.059Z,39.80
2023-03-10T03:45:24.341Z,39.80
2023-03-10T03:48:00.117Z,44.10
2023-03-10T03:50:33.371Z,36.50
2023-03-10T03:53:10.343Z,38.40
2023-03-10T03:55:44.191Z,38.10
2023-03-10T03:58:16.990Z,33.10
2023-03-10T04:00:51.678Z,24.60
2023-03-10T04:03:24.608Z,31.80
2023-03-10T04:05:56.942Z,27.20
2023-03-10T04:08:29.235Z,34.40
2023-03-10T04:11:01.928Z,28.10
2023-03-10T04:13:34.801Z,26.40
2023-03-10T04:16:08.190Z,22.90
2023-03-10T04:18:42.537Z,24.10
2023-03-10T04:21:17.784Z,21.30
2023-03-10T04:23:51.170Z,26.30
2023-03-10T04:26:26.490Z,22.90
2023-03-10T04:28:59.470Z,17.80
2023-03-10T04:31:32.508Z,18.90
2023-03-10T04:34:05.825Z,20.30
2023-03-10T04:36:38.229Z,19.60
2023-03-10T04:39:11.430Z,18.50
2023-03-10T04:41:44.711Z,18.50
2023-03-10T04:44:29.729Z,16.20
2023-03-10T04:47:03.281Z,15.90
2023-03-10T04:49:35.914Z,16.50
2023-03-10T04:52:08.737Z,17.00
2023-03-10T04:54:40.982Z,15.20
2023-03-10T04:57:13.111Z,16.40
2023-03-10T04:59:46.184Z,13.30
2023-03-10T05:02:18.421Z,16.90
2023-03-10T05:04:50.471Z,14.10
2023-03-10T05:07:23.031Z,17.30
2023-03-10T05:09:56.798Z,17.90
2023-03-10T05:12:29.276Z,17.00
2023-03-10T05:15:01.400Z,20.60
2023-03-10T05:17:33.819Z,19.80
2023-03-10T05:20:08.177Z,19.70
2023-03-10T05:22:41.520Z,19.10
2023-03-10T05:25:16.990Z,19.90
2023-03-10T05:27:49.319Z,17.80
2023-03-10T05:30:22.546Z,21.70
2023-03-10T05:35:25.817Z,23.00
2023-03-10T05:37:58.365Z,21.70
2023-03-10T05:40:30.796Z,22.60
2023-03-10T05:43:05.109Z,13.30
2023-03-10T05:45:37.261Z,22.20
2023-03-10T05:48:12.589Z,24.00
2023-03-10T05:50:44.606Z,22.70
2023-03-10T05:53:17.003Z,27.30
2023-03-10T05:55:49.270Z,28.20
2023-03-10T05:58:21.541Z,28.30
2023-03-10T06:00:54.206Z,23.90
2023-03-10T06:03:28.940Z,25.70
2023-03-10T06:06:13.776Z,25.60
2023-03-10T06:08:47.772Z,25.40
2023-03-10T06:11:20.251Z,21.80
2023-03-10T06:13:52.452Z,22.60
2023-03-10T06:16:24.900Z,19.70
2023-03-10T06:18:58.553Z,20.70
2023-03-10T06:24:03.487Z,16.60
2023-03-10T06:29:06.196Z,17.50
2023-03-10T06:31:38.737Z,17.00
2023-03-10T06:34:10.861Z,17.00
2023-03-10T06:36:43.673Z,15.80
2023-03-10T06:39:15.785Z,14.70
2023-03-10T06:41:47.814Z,15.20
2023-03-10T06:44:20.159Z,13.80
2023-03-10T06:46:52.503Z,12.40
2023-03-10T06:49:24.914Z,16.20
2023-03-10T06:51:57.083Z,18.60
2023-03-10T06:54:29.321Z,14.90
2023-03-10T06:57:01.670Z,18.70
2023-03-10T06:59:35.866Z,18.10
2023-03-10T07:02:09.431Z,21.20
2023-03-10T07:07:13.867Z,20.90
2023-03-10T07:09:46.556Z,15.70
2023-03-10T07:12:18.797Z,19.00
2023-03-10T07:14:50.999Z,15.70
2023-03-10T07:17:23.780Z,15.70
2023-03-10T07:19:56.414Z,15.60
2023-03-10T07:22:28.743Z,14.70
2023-03-10T07:25:01.555Z,14.90
2023-03-10T07:27:34.927Z,13.40
2023-03-10T07:30:08.421Z,12.20
2023-03-10T07:35:12.628Z,16.10
2023-03-10T07:37:44.970Z,12.50
2023-03-10T07:40:17.535Z,12.90
2023-03-10T07:42:49.756Z,13.10
2023-03-10T07:45:22.659Z,13.30
2023-03-10T07:47:55.839Z,11.40
2023-03-10T07:50:28.451Z,15.50
2023-03-10T07:53:01.048Z,14.90
2023-03-10T07:55:33.480Z,14.10
2023-03-10T07:58:05.761Z,14.60
2023-03-10T08:00:38.707Z,12.60
2023-03-10T08:03:11.351Z,14.90
2023-03-10T08:05:45.121Z,13.20
2023-03-10T08:10:47.733Z,12.40
2023-03-10T08:13:20.107Z,12.90
2023-03-10T08:15:52.654Z,13.10
2023-03-10T08:18:26.484Z,12.50
2023-03-10T08:20:59.553Z,10.50
2023-03-10T08:23:32.093Z,15.40
2023-03-10T08:26:06.757Z,10.50
2023-03-10T08:28:39.340Z,15.30
2023-03-10T08:31:13.621Z,12.00
2023-03-10T08:33:47.252Z,10.00
2023-03-10T08:36:21.424Z,9.20
2023-03-10T08:38:55.780Z,8.80
2023-03-10T08:41:30.247Z,9.60
2023-03-10T08:44:02.638Z,8.70
2023-03-10T08:46:36.241Z,9.50
2023-03-10T08:49:08.908Z,6.40
2023-03-10T08:54:18.511Z,7.30
2023-03-10T08:56:51.072Z,6.30
2023-03-10T08:59:23.900Z,4.70
2023-03-10T09:01:56.575Z,4.90
2023-03-10T09:04:28.701Z,4.90
2023-03-10T09:07:01.197Z,4.90
2023-03-10T09:09:33.470Z,4.80
2023-03-10T09:12:07.266Z,5.70
2023-03-10T09:14:39.756Z,3.50
2023-03-10T09:17:12.150Z,5.20
2023-03-10T09:19:44.322Z,4.60
2023-03-10T09:22:16.727Z,7.60
2023-03-10T09:24:49.240Z,5.20
2023-03-10T09:27:21.350Z,3.80
2023-03-10T09:29:53.499Z,6.00
2023-03-10T09:32:26.332Z,3.80
2023-03-10T09:34:58.543Z,3.40
2023-03-10T09:37:31.337Z,4.40
2023-03-10T09:40:06.390Z,4.90
2023-03-10T09:42:45.232Z,3.90
2023-03-10T09:45:28.181Z,3.50
2023-03-10T09:48:19.658Z,4.20
2023-03-10T09:50:53.832Z,3.70
2023-03-10T09:53:53.751Z,3.70
2023-03-10T09:56:31.876Z,4.20
2023-03-10T09:59:10.670Z,3.20
2023-03-10T10:01:47.118Z,3.30
2023-03-10T10:04:23.351Z,3.80
2023-03-10T10:06:55.972Z,3.00
2023-03-10T10:09:42.573Z,3.20
2023-03-10T10:12:17.819Z,2.30
2023-03-10T10:14:57.265Z,2.90
2023-03-10T10:17:52.306Z,3.80
2023-03-10T10:20:30.431Z,4.30
2023-03-10T10:23:04.941Z,4.70
2023-03-10T10:25:42.335Z,3.90
2023-03-10T10:28:26.189Z,4.40
2023-03-10T10:33:57.766Z,1.80
2023-03-10T10:36:32.401Z,4.70
2023-03-10T10:39:06.677Z,3.00
2023-03-10T10:41:39.343Z,3.20
2023-03-10T10:44:20.474Z,2.50
2023-03-10T10:46:57.924Z,1.60
2023-03-10T10:49:34.125Z,2.00
2023-03-10T10:52:20.241Z,2.60
2023-03-10T10:54:57.818Z,3.50
2023-03-10T10:57:34.198Z,2.90
2023-03-10T11:00:28.818Z,3.60
2023-03-10T11:03:01.163Z,2.70
2023-03-10T11:05:39.185Z,3.40
2023-03-10T11:08:33.042Z,2.50
2023-03-10T11:11:14.723Z,4.50
2023-03-10T11:14:01.975Z,3.00
2023-03-10T11:16:44.070Z,3.70
2023-03-10T11:19:23.483Z,2.10
2023-03-10T11:22:00.987Z,2.30
2023-03-10T11:24:41.167Z,2.20
2023-03-10T11:27:24.104Z,2.70
2023-03-10T11:30:11.800Z,4.90
2023-03-10T11:33:01.083Z,3.80
2023-03-10T11:35:39.098Z,3.90
2023-03-10T11:38:22.687Z,2.50
2023-03-10T11:40:57.174Z,2.20
2023-03-10T11:43:39.175Z,2.10
2023-03-10T11:46:18.347Z,2.40
2023-03-10T11:48:59.724Z,4.00
2023-03-10T11:51:39.222Z,2.70
2023-03-10T11:54:21.784Z,2.30
2023-03-10T11:56:57.649Z,2.70
2023-03-10T11:59:33.659Z,3.90
2023-03-10T12:02:13.554Z,3.10
2023-03-10T12:04:51.062Z,3.00
2023-03-10T12:07:28.876Z,2.90
2023-03-10T12:10:04.297Z,2.70
2023-03-10T12:12:39.223Z,2.90
2023-03-10T12:15:20.052Z,5.40
2023-03-10T12:17:54.215Z,2.30
2023-03-10T12:20:32.800Z,3.40
2023-03-10T12:23:40.539Z,3.00
2023-03-10T12:26:13.012Z,1.90
2023-03-10T12:28:45.922Z,3.10
2023-03-10T12:31:48.354Z,4.40
2023-03-10T12:34:23.689Z,4.20
2023-03-10T12:37:03.949Z,3.10
2023-03-10T12:39:40.441Z,3.00
2023-03-10T12:42:35.506Z,2.80
2023-03-10T12:45:24.605Z,3.10
2023-03-10T12:48:05.089Z,3.70
2023-03-10T12:50:48.067Z,4.00
2023-03-10T12:53:34.459Z,3.60
2023-03-10T12:56:39.980Z,3.00
2023-03-10T12:59:19.326Z,3.50
2023-03-10T13:01:56.427Z,3.30
2023-03-10T13:04:30.181Z,3.80
2023-03-10T13:07:04.499Z,2.90
2023-03-10T13:09:43.311Z,3.90
2023-03-10T13:12:25.788Z,4.10
2023-03-10T13:15:01.680Z,2.20
2023-03-10T13:17:35.920Z,4.30
2023-03-10T13:20:13.844Z,3.60
2023-03-10T13:22:55.824Z,3.10
2023-03-10T13:25:28.787Z,2.90
2023-03-10T13:28:09.635Z,3.80
2023-03-10T13:30:42.118Z,4.20
2023-03-10T13:33:25.726Z,4.00
2023-03-10T13:35:59.021Z,3.10
2023-03-10T13:41:06.163Z,3.60
2023-03-10T13:43:40.975Z,2.80
2023-03-10T13:46:19.093Z,4.10
2023-03-10T13:48:52.762Z,8.60
2023-03-10T13:51:26.977Z,3.20
2023-03-10T13:54:12.682Z,2.70
2023-03-10T13:56:47.747Z,4.10
2023-03-10T13:59:23.468Z,4.70
2023-03-10T14:02:14.495Z,3.60
2023-03-10T14:04:49.473Z,4.00
2023-03-10T14:07:23.276Z,5.70
2023-03-10T14:10:16.390Z,7.50
2023-03-10T14:12:50.089Z,8.70
2023-03-10T14:15:33.663Z,7.90
2023-03-10T14:18:22.198Z,7.40
2023-03-10T14:20:54.583Z,7.40
2023-03-10T14:23:37.064Z,7.70
2023-03-10T14:26:16.778Z,7.40
2023-03-10T14:28:49.298Z,4.60
2023-03-10T14:31:25.268Z,5.40
2023-03-10T14:33:57.683Z,3.50
2023-03-10T14:36:29.992Z,3.80
2023-03-10T14:39:03.537Z,5.70
